Current | Forecast
Updated: 4:00 PM CEST on May 25, 2017
Observed at Burgos, Spain
Temperature 29°C
Humidity 22%
Dew Point 5°C
Wind WSW at 13 km/h
Pressure 1016 hPa (Steady)
Conditions Partly Cloudy
Visibility 10.0 kilometers
UV 10 out of 16
Clouds (FEW) : 1676 m
Yesterday's Maximum 28°C
Yesterday's Minimum 6°C approx.
Yesterday's Heating Degree Days 2 approx.
Sunrise6:44 AM CEST
Sunset9:35 PM CEST
Moon Rise6:45 AM CEST
Moon Set9:11 PM CEST
Moon PhaseMoon Phase
Waning Crescent
Raw METARMETAR LEBG 251400Z 24007KT 210V340 9999 FEW055TCU 29/05 Q1016


Monday
. High: 69° F.
Tuesday
. High: 71° F.
Wednesday
. High: 62° F.
Thursday
. High: 60° F.
Friday
. High: 71° F.
Saturday
. High: 69° F.
Sunday
. High: 66° F.
Monday
. High: 75° F.

Units: English | Metric

Find the Weather for any City, State or Zipcode, or Country:

U.S. State List | Severe Weather | Tropical Storms | Ski Conditions
United States | Canada | Central America | South America | Asia | Europe | Australia | Africa | Islands

Weather Underground

© Copyright 2017
The Weather Company, LLC